sensor_id;sensor_type;location;lat;lon;timestamp;temperature;humidity
25410;DHT22;13339;50.840;4.346;2023-09-19T00:02:16;18.10;99.90
25410;DHT22;13339;50.840;4.346;2023-09-19T00:04:43;18.10;99.90
25410;DHT22;13339;50.840;4.346;2023-09-19T00:07:08;18.10;99.90
25410;DHT22;13339;50.840;4.346;2023-09-19T00:09:34;18.00;99.90
25410;DHT22;13339;50.840;4.346;2023-09-19T00:12:06;18.10;99.90
25410;DHT22;13339;50.840;4.346;2023-09-19T00:14:32;18.10;99.90
25410;DHT22;13339;50.840;4.346;2023-09-19T00:17:01;18.10;99.90
25410;DHT22;13339;50.840;4.346;2023-09-19T00:19:32;18.20;99.90
25410;DHT22;13339;50.840;4.346;2023-09-19T00:21:58;18.20;99.90
25410;DHT22;13339;50.840;4.346;2023-09-19T00:24:24;18.20;99.90
25410;DHT22;13339;50.840;4.346;2023-09-19T00:26:49;18.20;99.90
25410;DHT22;13339;50.840;4.346;2023-09-19T00:29:15;18.10;99.90
25410;DHT22;13339;50.840;4.346;2023-09-19T00:31:44;18.00;99.90
25410;DHT22;13339;50.840;4.346;2023-09-19T00:34:10;17.90;99.90
25410;DHT22;13339;50.840;4.346;2023-09-19T00:36:39;17.90;99.90
25410;DHT22;13339;50.840;4.346;2023-09-19T00:39:05;18.00;99.90
25410;DHT22;13339;50.840;4.346;2023-09-19T00:41:32;18.00;99.90
25410;DHT22;13339;50.840;4.346;2023-09-19T00:43:59;17.90;99.90
25410;DHT22;13339;50.840;4.346;2023-09-19T00:46:26;17.90;99.90
25410;DHT22;13339;50.840;4.346;2023-09-19T00:48:52;18.00;99.90
25410;DHT22;13339;50.840;4.346;2023-09-19T00:51:17;18.00;99.90
25410;DHT22;13339;50.840;4.346;2023-09-19T00:53:46;17.90;99.90
25410;DHT22;13339;50.840;4.346;2023-09-19T00:56:13;17.90;99.90
25410;DHT22;13339;50.840;4.346;2023-09-19T00:58:39;17.90;99.90
25410;DHT22;13339;50.840;4.346;2023-09-19T01:01:05;17.90;99.90
25410;DHT22;13339;50.840;4.346;2023-09-19T01:03:33;17.90;99.90
25410;DHT22;13339;50.840;4.346;2023-09-19T01:05:59;18.00;99.90
25410;DHT22;13339;50.840;4.346;2023-09-19T01:08:26;17.90;99.90
25410;DHT22;13339;50.840;4.346;2023-09-19T01:11:11;17.90;99.90
25410;DHT22;13339;50.840;4.346;2023-09-19T01:13:46;17.90;99.90
25410;DHT22;13339;50.840;4.346;2023-09-19T01:16:23;17.80;99.90
25410;DHT22;13339;50.840;4.346;2023-09-19T01:22:26;17.80;99.90
25410;DHT22;13339;50.840;4.346;2023-09-19T01:25:29;17.80;99.90
25410;DHT22;13339;50.840;4.346;2023-09-19T01:30:47;17.80;99.90
25410;DHT22;13339;50.840;4.346;2023-09-19T01:33:16;17.90;99.90
25410;DHT22;13339;50.840;4.346;2023-09-19T01:35:44;17.90;99.90
25410;DHT22;13339;50.840;4.346;2023-09-19T01:38:10;17.80;99.90
25410;DHT22;13339;50.840;4.346;2023-09-19T01:40:44;17.80;99.90
25410;DHT22;13339;50.840;4.346;2023-09-19T01:43:20;17.80;99.90
25410;DHT22;13339;50.840;4.346;2023-09-19T01:51:26;17.70;99.90
25410;DHT22;13339;50.840;4.346;2023-09-19T01:54:02;17.80;99.90
25410;DHT22;13339;50.840;4.346;2023-09-19T01:56:36;17.70;99.90
25410;DHT22;13339;50.840;4.346;2023-09-19T01:59:10;17.80;99.90
25410;DHT22;13339;50.840;4.346;2023-09-19T02:01:38;17.80;99.90
25410;DHT22;13339;50.840;4.346;2023-09-19T02:04:05;17.80;99.90
25410;DHT22;13339;50.840;4.346;2023-09-19T02:06:32;17.70;99.90
25410;DHT22;13339;50.840;4.346;2023-09-19T02:08:59;17.60;99.90
25410;DHT22;13339;50.840;4.346;2023-09-19T02:11:25;17.60;99.90
25410;DHT22;13339;50.840;4.346;2023-09-19T02:13:51;17.50;99.90
25410;DHT22;13339;50.840;4.346;2023-09-19T02:16:20;17.60;99.90
25410;DHT22;13339;50.840;4.346;2023-09-19T02:18:49;17.60;99.90
25410;DHT22;13339;50.840;4.346;2023-09-19T02:21:15;17.60;99.90
25410;DHT22;13339;50.840;4.346;2023-09-19T02:23:42;17.60;99.90
25410;DHT22;13339;50.840;4.346;2023-09-19T02:26:09;17.50;99.90
25410;DHT22;13339;50.840;4.346;2023-09-19T02:28:34;17.60;99.90
25410;DHT22;13339;50.840;4.346;2023-09-19T02:31:01;17.70;99.90
25410;DHT22;13339;50.840;4.346;2023-09-19T02:33:27;17.70;99.90
25410;DHT22;13339;50.840;4.346;2023-09-19T02:35:58;17.70;99.90
25410;DHT22;13339;50.840;4.346;2023-09-19T02:38:27;17.60;99.90
25410;DHT22;13339;50.840;4.346;2023-09-19T02:40:52;17.80;99.90
25410;DHT22;13339;50.840;4.346;2023-09-19T02:43:18;17.80;99.90
25410;DHT22;13339;50.840;4.346;2023-09-19T02:45:47;17.80;99.90
25410;DHT22;13339;50.840;4.346;2023-09-19T02:48:18;17.80;99.90
25410;DHT22;13339;50.840;4.346;2023-09-19T02:50:43;17.70;99.90
25410;DHT22;13339;50.840;4.346;2023-09-19T02:53:09;17.60;99.90
25410;DHT22;13339;50.840;4.346;2023-09-19T02:55:38;17.60;99.90
25410;DHT22;13339;50.840;4.346;2023-09-19T02:58:06;17.60;99.90
25410;DHT22;13339;50.840;4.346;2023-09-19T03:00:33;17.60;99.90
25410;DHT22;13339;50.840;4.346;2023-09-19T03:03:01;17.70;99.90
25410;DHT22;13339;50.840;4.346;2023-09-19T03:05:27;17.50;99.90
25410;DHT22;13339;50.840;4.346;2023-09-19T03:07:56;17.50;99.90
25410;DHT22;13339;50.840;4.346;2023-09-19T03:10:22;17.50;99.90
25410;DHT22;13339;50.840;4.346;2023-09-19T03:12:49;17.60;99.90
25410;DHT22;13339;50.840;4.346;2023-09-19T03:15:15;17.60;99.90
25410;DHT22;13339;50.840;4.346;2023-09-19T03:17:45;17.60;99.90
25410;DHT22;13339;50.840;4.346;2023-09-19T03:20:11;17.70;99.90
25410;DHT22;13339;50.840;4.346;2023-09-19T03:22:39;17.70;99.90
25410;DHT22;13339;50.840;4.346;2023-09-19T03:25:08;17.70;99.90
25410;DHT22;13339;50.840;4.346;2023-09-19T03:27:37;17.60;99.90
25410;DHT22;13339;50.840;4.346;2023-09-19T03:30:04;17.70;99.90
25410;DHT22;13339;50.840;4.346;2023-09-19T03:32:48;17.70;99.90
25410;DHT22;13339;50.840;4.346;2023-09-19T03:35:16;17.60;99.90
25410;DHT22;13339;50.840;4.346;2023-09-19T03:37:42;17.50;99.90
25410;DHT22;13339;50.840;4.346;2023-09-19T03:40:11;17.50;99.90
25410;DHT22;13339;50.840;4.346;2023-09-19T03:42:41;17.40;99.90
25410;DHT22;13339;50.840;4.346;2023-09-19T03:45:08;17.40;99.90
25410;DHT22;13339;50.840;4.346;2023-09-19T03:47:38;17.50;99.90
25410;DHT22;13339;50.840;4.346;2023-09-19T03:50:05;17.50;99.90
25410;DHT22;13339;50.840;4.346;2023-09-19T03:52:30;17.50;99.90
25410;DHT22;13339;50.840;4.346;2023-09-19T03:54:56;17.60;99.90
25410;DHT22;13339;50.840;4.346;2023-09-19T03:57:21;17.50;99.90
25410;DHT22;13339;50.840;4.346;2023-09-19T03:59:47;17.50;99.90
25410;DHT22;13339;50.840;4.346;2023-09-19T04:02:13;17.40;99.90
25410;DHT22;13339;50.840;4.346;2023-09-19T04:04:48;17.40;99.90
25410;DHT22;13339;50.840;4.346;2023-09-19T04:07:14;17.40;99.90
25410;DHT22;13339;50.840;4.346;2023-09-19T04:09:39;17.40;99.90
25410;DHT22;13339;50.840;4.346;2023-09-19T04:12:05;17.40;99.90
25410;DHT22;13339;50.840;4.346;2023-09-19T04:14:31;17.40;99.90
25410;DHT22;13339;50.840;4.346;2023-09-19T04:16:56;17.30;99.90
25410;DHT22;13339;50.840;4.346;2023-09-19T04:19:22;17.30;99.90
25410;DHT22;13339;50.840;4.346;2023-09-19T04:21:48;17.20;99.90
25410;DHT22;13339;50.840;4.346;2023-09-19T04:24:13;17.20;99.90
25410;DHT22;13339;50.840;4.346;2023-09-19T04:26:39;17.10;99.90
25410;DHT22;13339;50.840;4.346;2023-09-19T04:29:04;17.10;99.90
25410;DHT22;13339;50.840;4.346;2023-09-19T04:31:31;17.10;99.90
25410;DHT22;13339;50.840;4.346;2023-09-19T04:33:57;17.00;99.90
25410;DHT22;13339;50.840;4.346;2023-09-19T04:36:24;17.00;99.90
25410;DHT22;13339;50.840;4.346;2023-09-19T04:38:50;17.10;99.90
25410;DHT22;13339;50.840;4.346;2023-09-19T04:41:16;17.20;99.90
25410;DHT22;13339;50.840;4.346;2023-09-19T04:43:41;17.10;99.90
25410;DHT22;13339;50.840;4.346;2023-09-19T04:46:07;17.00;99.90
25410;DHT22;13339;50.840;4.346;2023-09-19T04:48:33;17.00;99.90
25410;DHT22;13339;50.840;4.346;2023-09-19T04:51:00;16.90;99.90
25410;DHT22;13339;50.840;4.346;2023-09-19T04:53:26;16.90;99.90
25410;DHT22;13339;50.840;4.346;2023-09-19T04:55:53;16.90;99.90
25410;DHT22;13339;50.840;4.346;2023-09-19T04:58:21;16.90;99.90
25410;DHT22;13339;50.840;4.346;2023-09-19T05:00:47;16.90;99.90
25410;DHT22;13339;50.840;4.346;2023-09-19T05:03:12;16.90;99.90
25410;DHT22;13339;50.840;4.346;2023-09-19T05:05:38;17.00;99.90
25410;DHT22;13339;50.840;4.346;2023-09-19T05:08:06;17.00;99.90
25410;DHT22;13339;50.840;4.346;2023-09-19T05:10:32;17.00;99.90
25410;DHT22;13339;50.840;4.346;2023-09-19T05:12:58;17.00;99.90
25410;DHT22;13339;50.840;4.346;2023-09-19T05:15:23;16.90;99.90
25410;DHT22;13339;50.840;4.346;2023-09-19T05:17:50;16.90;99.90
25410;DHT22;13339;50.840;4.346;2023-09-19T05:20:17;16.90;99.90
25410;DHT22;13339;50.840;4.346;2023-09-19T05:23:03;17.00;99.90
25410;DHT22;13339;50.840;4.346;2023-09-19T05:25:35;17.00;99.90
25410;DHT22;13339;50.840;4.346;2023-09-19T05:28:09;16.90;99.90
25410;DHT22;13339;50.840;4.346;2023-09-19T05:30:37;16.80;99.90
25410;DHT22;13339;50.840;4.346;2023-09-19T05:33:04;16.90;99.90
25410;DHT22;13339;50.840;4.346;2023-09-19T05:35:30;16.80;99.90
25410;DHT22;13339;50.840;4.346;2023-09-19T05:37:57;16.90;99.90
25410;DHT22;13339;50.840;4.346;2023-09-19T05:40:24;16.80;99.90
25410;DHT22;13339;50.840;4.346;2023-09-19T05:42:50;16.90;99.90
25410;DHT22;13339;50.840;4.346;2023-09-19T05:45:17;16.80;99.90
25410;DHT22;13339;50.840;4.346;2023-09-19T05:47:51;16.80;99.90
25410;DHT22;13339;50.840;4.346;2023-09-19T05:50:17;16.80;99.90
25410;DHT22;13339;50.840;4.346;2023-09-19T05:52:47;16.80;99.90
25410;DHT22;13339;50.840;4.346;2023-09-19T05:55:17;16.70;99.90
25410;DHT22;13339;50.840;4.346;2023-09-19T05:57:43;16.70;99.90
25410;DHT22;13339;50.840;4.346;2023-09-19T06:00:14;16.70;99.90
25410;DHT22;13339;50.840;4.346;2023-09-19T06:02:40;16.80;99.90
25410;DHT22;13339;50.840;4.346;2023-09-19T06:05:06;16.90;99.90
25410;DHT22;13339;50.840;4.346;2023-09-19T06:07:35;16.90;99.90
25410;DHT22;13339;50.840;4.346;2023-09-19T06:10:06;16.90;99.90
25410;DHT22;13339;50.840;4.346;2023-09-19T06:12:44;16.90;99.90
25410;DHT22;13339;50.840;4.346;2023-09-19T06:15:11;16.90;99.90
25410;DHT22;13339;50.840;4.346;2023-09-19T06:17:52;16.80;99.90
25410;DHT22;13339;50.840;4.346;2023-09-19T06:20:20;16.80;99.90
25410;DHT22;13339;50.840;4.346;2023-09-19T06:22:48;16.90;99.90
25410;DHT22;13339;50.840;4.346;2023-09-19T06:25:15;17.00;99.90
25410;DHT22;13339;50.840;4.346;2023-09-19T06:27:53;17.00;99.90
25410;DHT22;13339;50.840;4.346;2023-09-19T06:30:21;17.00;99.90
25410;DHT22;13339;50.840;4.346;2023-09-19T06:32:47;17.00;99.90
25410;DHT22;13339;50.840;4.346;2023-09-19T06:35:14;17.20;99.90
25410;DHT22;13339;50.840;4.346;2023-09-19T06:37:42;17.30;99.90
25410;DHT22;13339;50.840;4.346;2023-09-19T06:40:11;17.20;99.90
25410;DHT22;13339;50.840;4.346;2023-09-19T06:42:45;17.40;99.90
25410;DHT22;13339;50.840;4.346;2023-09-19T06:45:11;17.40;99.90
25410;DHT22;13339;50.840;4.346;2023-09-19T06:47:43;17.50;99.90
25410;DHT22;13339;50.840;4.346;2023-09-19T06:50:09;17.50;99.90
25410;DHT22;13339;50.840;4.346;2023-09-19T06:52:40;17.50;99.90
25410;DHT22;13339;50.840;4.346;2023-09-19T06:55:06;17.60;99.90
25410;DHT22;13339;50.840;4.346;2023-09-19T06:57:32;17.60;99.90
25410;DHT22;13339;50.840;4.346;2023-09-19T06:59:57;17.60;99.90
25410;DHT22;13339;50.840;4.346;2023-09-19T07:02:23;17.70;99.90
25410;DHT22;13339;50.840;4.346;2023-09-19T07:04:49;17.50;99.90
25410;DHT22;13339;50.840;4.346;2023-09-19T07:07:15;17.60;99.90
25410;DHT22;13339;50.840;4.346;2023-09-19T07:09:41;17.60;99.90
25410;DHT22;13339;50.840;4.346;2023-09-19T07:12:07;17.70;99.90
25410;DHT22;13339;50.840;4.346;2023-09-19T07:14:33;17.70;99.90
25410;DHT22;13339;50.840;4.346;2023-09-19T07:16:59;17.70;99.90
25410;DHT22;13339;50.840;4.346;2023-09-19T07:19:29;17.80;99.90
25410;DHT22;13339;50.840;4.346;2023-09-19T07:21:55;17.70;99.90
25410;DHT22;13339;50.840;4.346;2023-09-19T07:24:21;17.80;99.90
25410;DHT22;13339;50.840;4.346;2023-09-19T07:26:49;17.80;99.90
25410;DHT22;13339;50.840;4.346;2023-09-19T07:29:15;17.80;99.90
25410;DHT22;13339;50.840;4.346;2023-09-19T07:31:40;17.80;99.90
25410;DHT22;13339;50.840;4.346;2023-09-19T07:34:07;17.80;99.90
25410;DHT22;13339;50.840;4.346;2023-09-19T07:36:34;17.70;99.90
25410;DHT22;13339;50.840;4.346;2023-09-19T07:39:00;17.60;99.90
25410;DHT22;13339;50.840;4.346;2023-09-19T07:41:26;17.70;99.90
25410;DHT22;13339;50.840;4.346;2023-09-19T07:43:52;17.70;99.90
25410;DHT22;13339;50.840;4.346;2023-09-19T07:46:18;17.70;99.90
25410;DHT22;13339;50.840;4.346;2023-09-19T07:48:44;17.80;99.90
25410;DHT22;13339;50.840;4.346;2023-09-19T07:51:14;17.70;99.90
25410;DHT22;13339;50.840;4.346;2023-09-19T07:53:41;17.80;99.90
25410;DHT22;13339;50.840;4.346;2023-09-19T07:56:09;18.00;99.90
25410;DHT22;13339;50.840;4.346;2023-09-19T07:58:35;18.20;99.90
25410;DHT22;13339;50.840;4.346;2023-09-19T08:01:09;18.60;99.90
25410;DHT22;13339;50.840;4.346;2023-09-19T08:03:36;19.00;99.90
25410;DHT22;13339;50.840;4.346;2023-09-19T08:06:06;19.10;99.90
25410;DHT22;13339;50.840;4.346;2023-09-19T08:08:33;19.20;99.90
25410;DHT22;13339;50.840;4.346;2023-09-19T08:11:05;19.30;99.90
25410;DHT22;13339;50.840;4.346;2023-09-19T08:13:39;19.40;99.90
25410;DHT22;13339;50.840;4.346;2023-09-19T08:16:11;19.40;99.90
25410;DHT22;13339;50.840;4.346;2023-09-19T08:18:37;19.30;99.90
25410;DHT22;13339;50.840;4.346;2023-09-19T08:21:05;19.20;99.90
25410;DHT22;13339;50.840;4.346;2023-09-19T08:23:33;19.10;99.90
25410;DHT22;13339;50.840;4.346;2023-09-19T08:25:58;19.10;99.90
25410;DHT22;13339;50.840;4.346;2023-09-19T08:28:28;19.10;99.90
25410;DHT22;13339;50.840;4.346;2023-09-19T08:30:55;19.10;99.90
25410;DHT22;13339;50.840;4.346;2023-09-19T08:33:21;19.10;99.90
25410;DHT22;13339;50.840;4.346;2023-09-19T08:35:46;19.00;99.90
25410;DHT22;13339;50.840;4.346;2023-09-19T08:38:12;19.10;99.90
25410;DHT22;13339;50.840;4.346;2023-09-19T08:40:39;19.10;99.90
25410;DHT22;13339;50.840;4.346;2023-09-19T08:43:07;19.00;99.90
25410;DHT22;13339;50.840;4.346;2023-09-19T08:45:34;18.90;99.90
25410;DHT22;13339;50.840;4.346;2023-09-19T08:48:16;18.80;99.90
25410;DHT22;13339;50.840;4.346;2023-09-19T08:50:48;18.80;99.90
25410;DHT22;13339;50.840;4.346;2023-09-19T08:54:06;18.90;99.90
25410;DHT22;13339;50.840;4.346;2023-09-19T08:56:09;19.00;99.90
25410;DHT22;13339;50.840;4.346;2023-09-19T09:01:13;19.30;99.90
25410;DHT22;13339;50.840;4.346;2023-09-19T09:03:40;19.40;99.90
25410;DHT22;13339;50.840;4.346;2023-09-19T09:06:09;19.40;99.90
25410;DHT22;13339;50.840;4.346;2023-09-19T09:08:36;19.40;99.90
25410;DHT22;13339;50.840;4.346;2023-09-19T09:11:02;19.60;99.90
25410;DHT22;13339;50.840;4.346;2023-09-19T09:13:29;19.70;99.90
25410;DHT22;13339;50.840;4.346;2023-09-19T09:15:54;19.80;99.90
25410;DHT22;13339;50.840;4.346;2023-09-19T09:18:20;19.80;99.90
25410;DHT22;13339;50.840;4.346;2023-09-19T09:20:46;19.80;99.90
25410;DHT22;13339;50.840;4.346;2023-09-19T09:23:14;19.90;99.90
25410;DHT22;13339;50.840;4.346;2023-09-19T09:25:54;20.00;99.90
25410;DHT22;13339;50.840;4.346;2023-09-19T09:28:23;20.10;99.90
25410;DHT22;13339;50.840;4.346;2023-09-19T09:30:49;20.00;99.90
25410;DHT22;13339;50.840;4.346;2023-09-19T09:33:16;19.90;99.90
25410;DHT22;13339;50.840;4.346;2023-09-19T09:36:01;20.00;99.90
25410;DHT22;13339;50.840;4.346;2023-09-19T09:38:30;20.20;99.90
25410;DHT22;13339;50.840;4.346;2023-09-19T09:41:09;20.40;99.90
25410;DHT22;13339;50.840;4.346;2023-09-19T09:43:39;20.40;99.90
25410;DHT22;13339;50.840;4.346;2023-09-19T09:46:10;20.40;99.90
25410;DHT22;13339;50.840;4.346;2023-09-19T09:51:38;20.40;99.90
25410;DHT22;13339;50.840;4.346;2023-09-19T09:54:17;20.30;99.90
25410;DHT22;13339;50.840;4.346;2023-09-19T09:56:55;20.40;99.90
25410;DHT22;13339;50.840;4.346;2023-09-19T09:59:52;20.50;99.90
25410;DHT22;13339;50.840;4.346;2023-09-19T10:02:30;20.50;99.90
25410;DHT22;13339;50.840;4.346;2023-09-19T10:07:51;20.60;99.90
25410;DHT22;13339;50.840;4.346;2023-09-19T10:10:40;20.50;99.90
25410;DHT22;13339;50.840;4.346;2023-09-19T10:13:10;20.20;99.90
25410;DHT22;13339;50.840;4.346;2023-09-19T10:15:43;20.20;99.90
25410;DHT22;13339;50.840;4.346;2023-09-19T10:18:23;20.20;99.90
25410;DHT22;13339;50.840;4.346;2023-09-19T10:20:49;20.10;99.90
25410;DHT22;13339;50.840;4.346;2023-09-19T10:23:18;20.10;99.90
25410;DHT22;13339;50.840;4.346;2023-09-19T10:25:48;20.30;99.90
25410;DHT22;13339;50.840;4.346;2023-09-19T10:28:17;20.40;99.90
25410;DHT22;13339;50.840;4.346;2023-09-19T10:30:49;20.50;99.90
25410;DHT22;13339;50.840;4.346;2023-09-19T10:33:23;20.70;99.90
25410;DHT22;13339;50.840;4.346;2023-09-19T10:35:52;20.80;99.90
25410;DHT22;13339;50.840;4.346;2023-09-19T10:38:23;20.90;99.90
25410;DHT22;13339;50.840;4.346;2023-09-19T10:40:52;21.00;99.90
25410;DHT22;13339;50.840;4.346;2023-09-19T10:43:20;21.20;99.90
25410;DHT22;13339;50.840;4.346;2023-09-19T10:45:47;21.20;99.90
25410;DHT22;13339;50.840;4.346;2023-09-19T10:48:16;21.30;99.90
25410;DHT22;13339;50.840;4.346;2023-09-19T10:53:26;21.40;99.90
25410;DHT22;13339;50.840;4.346;2023-09-19T10:55:56;21.40;99.90
25410;DHT22;13339;50.840;4.346;2023-09-19T10:58:27;21.40;99.90
25410;DHT22;13339;50.840;4.346;2023-09-19T11:00:58;21.50;99.90
25410;DHT22;13339;50.840;4.346;2023-09-19T11:03:35;21.40;99.90
25410;DHT22;13339;50.840;4.346;2023-09-19T11:06:16;21.40;99.90
25410;DHT22;13339;50.840;4.346;2023-09-19T11:08:53;21.60;99.90
25410;DHT22;13339;50.840;4.346;2023-09-19T11:20:15;21.80;99.90
25410;DHT22;13339;50.840;4.346;2023-09-19T11:30:41;21.80;99.90
25410;DHT22;13339;50.840;4.346;2023-09-19T11:33:16;21.80;99.90
25410;DHT22;13339;50.840;4.346;2023-09-19T11:36:07;21.70;99.90
25410;DHT22;13339;50.840;4.346;2023-09-19T11:46:35;22.00;99.90
25410;DHT22;13339;50.840;4.346;2023-09-19T11:49:16;22.00;99.90
25410;DHT22;13339;50.840;4.346;2023-09-19T11:51:50;22.10;99.90
25410;DHT22;13339;50.840;4.346;2023-09-19T11:54:19;22.10;99.90
25410;DHT22;13339;50.840;4.346;2023-09-19T11:56:49;22.00;99.90
25410;DHT22;13339;50.840;4.346;2023-09-19T11:59:22;22.10;99.90
25410;DHT22;13339;50.840;4.346;2023-09-19T12:01:53;22.20;99.90
25410;DHT22;13339;50.840;4.346;2023-09-19T12:04:43;22.30;99.90
25410;DHT22;13339;50.840;4.346;2023-09-19T12:07:14;22.30;99.90
25410;DHT22;13339;50.840;4.346;2023-09-19T12:09:48;22.10;99.90
25410;DHT22;13339;50.840;4.346;2023-09-19T12:12:25;22.10;99.90
25410;DHT22;13339;50.840;4.346;2023-09-19T12:14:53;22.20;99.90
25410;DHT22;13339;50.840;4.346;2023-09-19T12:17:19;22.20;99.90
25410;DHT22;13339;50.840;4.346;2023-09-19T12:19:55;22.20;99.90
25410;DHT22;13339;50.840;4.346;2023-09-19T12:22:22;22.20;99.90
25410;DHT22;13339;50.840;4.346;2023-09-19T12:24:47;22.20;99.90
25410;DHT22;13339;50.840;4.346;2023-09-19T12:27:14;22.30;99.90
25410;DHT22;13339;50.840;4.346;2023-09-19T12:29:46;22.10;99.90
25410;DHT22;13339;50.840;4.346;2023-09-19T12:32:14;22.10;99.90
25410;DHT22;13339;50.840;4.346;2023-09-19T12:34:49;22.00;99.90
25410;DHT22;13339;50.840;4.346;2023-09-19T12:37:15;22.00;99.90
25410;DHT22;13339;50.840;4.346;2023-09-19T12:39:46;22.00;99.90
25410;DHT22;13339;50.840;4.346;2023-09-19T12:42:15;21.90;99.90
25410;DHT22;13339;50.840;4.346;2023-09-19T12:44:46;22.00;99.90
25410;DHT22;13339;50.840;4.346;2023-09-19T12:47:16;22.10;99.90
25410;DHT22;13339;50.840;4.346;2023-09-19T12:50:12;22.10;99.90
25410;DHT22;13339;50.840;4.346;2023-09-19T12:52:47;22.00;99.90
25410;DHT22;13339;50.840;4.346;2023-09-19T12:55:21;22.10;99.90
25410;DHT22;13339;50.840;4.346;2023-09-19T13:00:33;22.10;99.90
25410;DHT22;13339;50.840;4.346;2023-09-19T13:03:24;22.10;99.90
25410;DHT22;13339;50.840;4.346;2023-09-19T13:08:31;22.20;99.90
25410;DHT22;13339;50.840;4.346;2023-09-19T13:13:49;22.10;99.90
25410;DHT22;13339;50.840;4.346;2023-09-19T13:16:21;22.20;99.90
25410;DHT22;13339;50.840;4.346;2023-09-19T13:18:51;22.20;99.90
25410;DHT22;13339;50.840;4.346;2023-09-19T13:21:27;22.10;99.90
25410;DHT22;13339;50.840;4.346;2023-09-19T13:23:54;22.30;99.90
25410;DHT22;13339;50.840;4.346;2023-09-19T13:26:28;22.40;99.90
25410;DHT22;13339;50.840;4.346;2023-09-19T13:28:56;22.40;99.90
25410;DHT22;13339;50.840;4.346;2023-09-19T13:31:22;22.50;99.90
25410;DHT22;13339;50.840;4.346;2023-09-19T13:33:49;22.50;99.90
25410;DHT22;13339;50.840;4.346;2023-09-19T13:36:15;22.70;99.90
25410;DHT22;13339;50.840;4.346;2023-09-19T13:38:41;22.70;99.90
25410;DHT22;13339;50.840;4.346;2023-09-19T13:41:10;22.70;99.90
25410;DHT22;13339;50.840;4.346;2023-09-19T13:43:39;22.70;99.90
25410;DHT22;13339;50.840;4.346;2023-09-19T13:46:05;22.70;99.90
25410;DHT22;13339;50.840;4.346;2023-09-19T13:48:37;22.70;99.90
25410;DHT22;13339;50.840;4.346;2023-09-19T13:51:04;22.60;99.90
25410;DHT22;13339;50.840;4.346;2023-09-19T13:53:30;22.50;99.90
25410;DHT22;13339;50.840;4.346;2023-09-19T13:55:55;22.50;99.90
25410;DHT22;13339;50.840;4.346;2023-09-19T13:58:21;22.40;99.90
25410;DHT22;13339;50.840;4.346;2023-09-19T14:00:48;22.40;99.90
25410;DHT22;13339;50.840;4.346;2023-09-19T14:03:14;22.40;99.90
25410;DHT22;13339;50.840;4.346;2023-09-19T14:05:40;22.40;99.90
25410;DHT22;13339;50.840;4.346;2023-09-19T14:08:05;22.30;99.90
25410;DHT22;13339;50.840;4.346;2023-09-19T14:10:31;22.40;99.90
25410;DHT22;13339;50.840;4.346;2023-09-19T14:12:57;22.40;99.90
25410;DHT22;13339;50.840;4.346;2023-09-19T14:15:26;22.30;99.90
25410;DHT22;13339;50.840;4.346;2023-09-19T14:17:58;22.30;99.90
25410;DHT22;13339;50.840;4.346;2023-09-19T14:20:25;22.30;99.90
25410;DHT22;13339;50.840;4.346;2023-09-19T14:22:52;22.40;99.90
25410;DHT22;13339;50.840;4.346;2023-09-19T14:25:18;22.20;99.90
25410;DHT22;13339;50.840;4.346;2023-09-19T14:27:44;22.20;99.90
25410;DHT22;13339;50.840;4.346;2023-09-19T14:30:10;22.20;99.90
25410;DHT22;13339;50.840;4.346;2023-09-19T14:32:36;22.30;99.90
25410;DHT22;13339;50.840;4.346;2023-09-19T14:35:02;22.40;99.90
25410;DHT22;13339;50.840;4.346;2023-09-19T14:37:28;22.40;99.90
25410;DHT22;13339;50.840;4.346;2023-09-19T14:39:54;22.40;99.90
25410;DHT22;13339;50.840;4.346;2023-09-19T14:42:20;22.30;99.90
25410;DHT22;13339;50.840;4.346;2023-09-19T14:44:45;22.20;99.90
25410;DHT22;13339;50.840;4.346;2023-09-19T14:47:13;22.20;99.90
25410;DHT22;13339;50.840;4.346;2023-09-19T14:49:39;22.30;99.90
25410;DHT22;13339;50.840;4.346;2023-09-19T14:52:09;22.40;99.90
25410;DHT22;13339;50.840;4.346;2023-09-19T14:54:36;22.50;99.90
25410;DHT22;13339;50.840;4.346;2023-09-19T14:57:03;22.50;99.90
25410;DHT22;13339;50.840;4.346;2023-09-19T14:59:33;22.50;99.90
25410;DHT22;13339;50.840;4.346;2023-09-19T15:02:05;22.40;99.90
25410;DHT22;13339;50.840;4.346;2023-09-19T15:04:31;22.10;99.90
25410;DHT22;13339;50.840;4.346;2023-09-19T15:06:56;22.10;99.90
25410;DHT22;13339;50.840;4.346;2023-09-19T15:09:23;22.20;99.90
25410;DHT22;13339;50.840;4.346;2023-09-19T15:11:53;22.30;99.90
25410;DHT22;13339;50.840;4.346;2023-09-19T15:14:19;22.30;99.90
25410;DHT22;13339;50.840;4.346;2023-09-19T15:16:45;22.20;99.90
25410;DHT22;13339;50.840;4.346;2023-09-19T15:19:10;22.20;99.90
25410;DHT22;13339;50.840;4.346;2023-09-19T15:21:36;22.20;99.90
25410;DHT22;13339;50.840;4.346;2023-09-19T15:24:06;22.20;99.90
25410;DHT22;13339;50.840;4.346;2023-09-19T15:26:35;22.10;99.90
25410;DHT22;13339;50.840;4.346;2023-09-19T15:29:05;21.90;99.90
25410;DHT22;13339;50.840;4.346;2023-09-19T15:31:31;21.90;99.90
25410;DHT22;13339;50.840;4.346;2023-09-19T15:33:57;21.80;99.90
25410;DHT22;13339;50.840;4.346;2023-09-19T15:36:23;21.70;99.90
25410;DHT22;13339;50.840;4.346;2023-09-19T15:41:33;21.50;99.90
25410;DHT22;13339;50.840;4.346;2023-09-19T15:44:01;21.40;99.90
25410;DHT22;13339;50.840;4.346;2023-09-19T15:46:31;21.50;99.90
25410;DHT22;13339;50.840;4.346;2023-09-19T15:48:57;21.70;99.90
25410;DHT22;13339;50.840;4.346;2023-09-19T15:51:23;21.70;99.90
25410;DHT22;13339;50.840;4.346;2023-09-19T15:53:52;21.80;99.90
25410;DHT22;13339;50.840;4.346;2023-09-19T15:56:19;21.70;99.90
25410;DHT22;13339;50.840;4.346;2023-09-19T15:58:52;21.70;99.90
25410;DHT22;13339;50.840;4.346;2023-09-19T16:01:20;21.70;99.90
25410;DHT22;13339;50.840;4.346;2023-09-19T16:03:51;21.80;99.90
25410;DHT22;13339;50.840;4.346;2023-09-19T16:06:27;21.70;99.90
25410;DHT22;13339;50.840;4.346;2023-09-19T16:08:55;21.60;99.90
25410;DHT22;13339;50.840;4.346;2023-09-19T16:11:22;21.50;99.90
25410;DHT22;13339;50.840;4.346;2023-09-19T16:13:49;21.60;99.90
25410;DHT22;13339;50.840;4.346;2023-09-19T16:16:16;21.60;99.90
25410;DHT22;13339;50.840;4.346;2023-09-19T16:18:47;21.60;99.90
25410;DHT22;13339;50.840;4.346;2023-09-19T16:21:16;21.40;99.90
25410;DHT22;13339;50.840;4.346;2023-09-19T16:23:46;21.40;99.90
25410;DHT22;13339;50.840;4.346;2023-09-19T16:26:12;21.30;99.90
25410;DHT22;13339;50.840;4.346;2023-09-19T16:28:39;21.30;99.90
25410;DHT22;13339;50.840;4.346;2023-09-19T16:31:06;21.40;99.90
25410;DHT22;13339;50.840;4.346;2023-09-19T16:33:36;21.40;99.90
25410;DHT22;13339;50.840;4.346;2023-09-19T16:36:12;21.40;99.90
25410;DHT22;13339;50.840;4.346;2023-09-19T16:38:39;21.40;99.90
25410;DHT22;13339;50.840;4.346;2023-09-19T16:41:06;21.30;99.90